< < Back
Terminal Aerodrome Forecast


Current Version              Previous Versions:   1  2  3  4  5  6  7  8  9  

Terminal Aerodrome Forecast

670
FTUS42 KMLB 020320 AAC
TAFMCO
TAF AMD
KMCO 020320Z 0203/0224 21007KT P6SM VCSH SCT050 BKN120
     FM020400 18003KT P6SM SCT120 BKN250
     FM021400 20005KT P6SM SCT025 SCT250=

Latest METAR

192
SAUS70 KWBC 021800 RRL
MTRMCO
METAR KMCO 021753Z AUTO 20009KT 10SM FEW044 33/22 A3009 RMK AO2 SLP187
T03330217 10333 20256 58017


USA.gov is the U.S. government's official web portal to all federal, state and local government web resources and services.